Time;durP1;ratioP1;P1;durP2;ratioP2;P2;SDS_P1;SDS_P2;PMS_P1;PMS_P2;Temp;Humidity;BMP_temperature;BMP_pressure;BME280_temperature;BME280_humidity;BME280_pressure;Samples;Min_cycle;Max_cycle;Signal;HPM_P1;HPM_P2
2021/09/22 00:01:11;;;;;;;3.25;2.78;;;6.50;99.90;;;;;;5053229;28;20490;-82
2021/09/22 00:03:37;;;;;;;3.50;2.40;;;6.50;99.90;;;;;;5051317;28;20021;-85
2021/09/22 00:06:03;;;;;;;4.28;2.92;;;6.50;99.90;;;;;;5052392;28;20109;-84
2021/09/22 00:08:29;;;;;;;2.95;2.65;;;6.50;99.90;;;;;;5052402;28;20056;-83
2021/09/22 00:10:55;;;;;;;3.10;2.55;;;6.50;99.90;;;;;;5052575;28;20021;-83
2021/09/22 00:13:22;;;;;;;5.15;3.17;;;6.50;99.90;;;;;;5052238;28;20532;-83
2021/09/22 00:15:47;;;;;;;3.13;2.55;;;6.60;99.90;;;;;;5051202;28;20029;-81
2021/09/22 00:18:13;;;;;;;3.75;2.97;;;6.50;99.90;;;;;;5052450;28;20025;-86
2021/09/22 00:20:39;;;;;;;3.53;2.95;;;6.50;99.90;;;;;;5052232;28;20021;-83
2021/09/22 00:23:05;;;;;;;2.42;2.22;;;6.40;99.90;;;;;;5051380;28;20416;-81
2021/09/22 00:25:32;;;;;;;3.58;2.85;;;6.50;99.90;;;;;;5052505;28;20025;-85
2021/09/22 00:28:02;;;;;;;4.18;3.08;;;6.40;99.90;;;;;;5052526;28;20425;-82
2021/09/22 00:30:28;;;;;;;3.30;2.53;;;6.40;99.90;;;;;;5053326;28;20017;-83
2021/09/22 00:32:54;;;;;;;3.60;3.30;;;6.50;99.90;;;;;;5053340;28;20025;-82
2021/09/22 00:35:20;;;;;;;3.70;3.20;;;6.50;99.90;;;;;;5052231;28;20398;-82
2021/09/22 00:37:45;;;;;;;7.20;3.17;;;6.50;99.90;;;;;;5052399;28;20383;-84
2021/09/22 00:40:12;;;;;;;3.20;2.90;;;6.50;99.90;;;;;;5052474;28;20170;-83
2021/09/22 00:42:38;;;;;;;4.63;3.22;;;6.40;99.90;;;;;;5052307;28;20054;-84
2021/09/22 00:45:13;;;;;;;3.72;2.88;;;6.40;99.90;;;;;;5054621;28;20028;-84
2021/09/22 00:47:40;;;;;;;4.18;3.20;;;6.30;99.90;;;;;;5055907;28;20100;-83
2021/09/22 00:50:07;;;;;;;4.45;3.10;;;6.30;99.90;;;;;;5056091;28;20083;-83
2021/09/22 00:52:33;;;;;;;3.42;3.03;;;6.30;99.90;;;;;;5057320;28;20037;-81
2021/09/22 00:54:59;;;;;;;4.45;3.15;;;6.30;99.90;;;;;;5068082;28;20039;-84
2021/09/22 00:57:26;;;;;;;5.90;3.20;;;6.30;99.90;;;;;;5056763;28;20105;-83
2021/09/22 00:59:51;;;;;;;4.20;3.28;;;6.30;99.90;;;;;;5054926;28;20094;-82
2021/09/22 01:02:17;;;;;;;4.72;2.83;;;6.30;99.90;;;;;;5056009;28;20049;-83
2021/09/22 01:04:44;;;;;;;4.07;3.40;;;6.20;99.90;;;;;;5055784;28;20028;-82
2021/09/22 01:07:12;;;;;;;3.90;3.17;;;6.20;99.90;;;;;;5055797;28;20100;-83
2021/09/22 01:09:39;;;;;;;4.47;3.47;;;6.20;99.90;;;;;;5055790;28;20250;-84
2021/09/22 01:12:06;;;;;;;4.53;2.92;;;6.20;99.90;;;;;;5055538;28;20438;-83
2021/09/22 01:14:32;;;;;;;5.10;3.47;;;6.10;99.90;;;;;;5037578;28;20029;-83
2021/09/22 01:16:57;;;;;;;5.13;3.35;;;6.20;99.90;;;;;;5055449;28;20508;-83
2021/09/22 01:19:27;;;;;;;4.50;3.78;;;6.20;99.90;;;;;;5055804;28;20037;-83
2021/09/22 01:21:55;;;;;;;5.82;3.15;;;6.30;99.90;;;;;;5059388;28;20108;-83
2021/09/22 01:24:21;;;;;;;4.95;3.70;;;6.30;99.90;;;;;;5061351;28;20056;-85
2021/09/22 01:26:48;;;;;;;4.10;3.45;;;6.30;99.90;;;;;;5062398;28;20428;-85
2021/09/22 01:29:15;;;;;;;4.30;3.25;;;6.30;99.90;;;;;;5057795;28;20497;-85
2021/09/22 01:31:42;;;;;;;5.47;3.95;;;6.30;99.90;;;;;;5055107;28;20029;-85
2021/09/22 01:34:10;;;;;;;4.63;4.03;;;6.30;99.90;;;;;;5058562;28;20122;-83
2021/09/22 01:36:38;;;;;;;5.63;4.20;;;6.30;99.90;;;;;;5021828;28;20175;-83
2021/09/22 01:39:05;;;;;;;5.82;4.20;;;6.30;99.90;;;;;;5056196;28;20021;-84
2021/09/22 01:41:32;;;;;;;5.18;3.72;;;6.30;99.90;;;;;;5017893;28;20040;-84
2021/09/22 01:43:58;;;;;;;5.30;4.80;;;6.30;99.90;;;;;;5051607;28;20021;-83
2021/09/22 01:46:25;;;;;;;5.82;4.30;;;6.30;99.90;;;;;;5054201;28;20021;-83
2021/09/22 01:48:51;;;;;;;5.28;4.43;;;6.30;99.90;;;;;;5056658;28;20028;-84
2021/09/22 01:51:17;;;;;;;5.68;4.45;;;6.40;99.90;;;;;;5067442;28;20453;-83
2021/09/22 01:53:43;;;;;;;6.18;4.90;;;6.40;99.90;;;;;;5054985;28;20067;-84
2021/09/22 01:56:09;;;;;;;5.45;3.80;;;6.40;99.90;;;;;;5054823;28;20045;-84
2021/09/22 01:58:36;;;;;;;5.00;3.73;;;6.30;99.90;;;;;;5055098;28;20028;-85
2021/09/22 02:01:05;;;;;;;4.57;4.18;;;6.30;99.90;;;;;;5054678;28;20367;-82
2021/09/22 02:03:31;;;;;;;6.50;5.20;;;6.40;99.90;;;;;;5054818;28;20070;-83
2021/09/22 02:05:57;;;;;;;5.70;4.78;;;6.40;99.90;;;;;;5068640;28;20032;-83
2021/09/22 02:08:23;;;;;;;5.22;4.72;;;6.40;99.90;;;;;;5053340;28;20092;-84
2021/09/22 02:10:49;;;;;;;6.35;5.70;;;6.30;99.90;;;;;;5054908;28;20033;-83
2021/09/22 02:13:15;;;;;;;7.20;4.82;;;6.30;99.90;;;;;;5054459;28;20016;-84
2021/09/22 02:15:41;;;;;;;5.28;4.78;;;6.40;99.90;;;;;;5054303;28;20021;-83
2021/09/22 02:18:08;;;;;;;10.15;5.65;;;6.30;99.90;;;;;;5054912;28;20104;-83
2021/09/22 02:20:34;;;;;;;5.55;4.82;;;6.30;99.90;;;;;;5057339;28;20029;-82
2021/09/22 02:23:00;;;;;;;5.78;5.18;;;6.30;99.90;;;;;;5054319;28;20168;-83
2021/09/22 02:25:26;;;;;;;5.10;4.57;;;6.30;99.90;;;;;;5054479;28;20057;-83
2021/09/22 02:27:52;;;;;;;5.32;4.82;;;6.30;99.90;;;;;;5054192;28;20025;-85
2021/09/22 02:30:21;;;;;;;6.30;5.20;;;6.30;99.90;;;;;;5054451;28;20017;-84
2021/09/22 02:32:47;;;;;;;6.80;4.97;;;6.30;99.90;;;;;;5054558;28;20028;-82
2021/09/22 02:35:13;;;;;;;5.20;4.70;;;6.30;99.90;;;;;;5061749;28;20032;-83
2021/09/22 02:37:40;;;;;;;4.80;4.28;;;6.20;99.90;;;;;;5077150;28;20025;-82
2021/09/22 02:40:11;;;;;;;5.97;4.50;;;6.20;99.90;;;;;;5066917;28;20025;-81
2021/09/22 02:42:37;;;;;;;4.30;3.58;;;6.20;99.90;;;;;;5052975;28;20158;-84
2021/09/22 02:45:03;;;;;;;4.47;3.83;;;6.20;99.90;;;;;;5053639;28;20440;-82
2021/09/22 02:47:29;;;;;;;4.90;4.38;;;6.10;99.90;;;;;;5054869;28;20100;-87
2021/09/22 02:49:54;;;;;;;5.60;4.80;;;6.00;99.90;;;;;;5065648;28;20060;-82
2021/09/22 02:52:20;;;;;;;5.30;4.13;;;6.00;99.90;;;;;;5060645;28;20407;-83
2021/09/22 02:54:47;;;;;;;7.43;4.57;;;6.00;99.90;;;;;;5054383;28;20020;-83
2021/09/22 02:57:13;;;;;;;7.10;5.28;;;6.00;99.90;;;;;;5066408;28;20490;-82
2021/09/22 02:59:39;;;;;;;5.07;4.05;;;6.00;99.90;;;;;;5054036;28;20087;-83
2021/09/22 03:02:05;;;;;;;4.13;3.38;;;6.00;99.90;;;;;;5054058;28;20474;-85
2021/09/22 03:04:31;;;;;;;3.88;3.38;;;6.00;99.90;;;;;;5035831;28;20392;-83
2021/09/22 03:06:57;;;;;;;5.25;4.38;;;6.00;99.90;;;;;;5053713;28;20116;-83
2021/09/22 03:09:24;;;;;;;5.18;3.55;;;5.90;99.90;;;;;;5052461;28;20087;-84
2021/09/22 03:11:50;;;;;;;5.95;3.63;;;5.90;99.90;;;;;;5053484;28;20490;-83
2021/09/22 03:14:16;;;;;;;5.07;3.45;;;5.90;99.90;;;;;;5053236;28;20033;-83
2021/09/22 03:16:42;;;;;;;5.20;3.40;;;5.90;99.90;;;;;;5053280;28;20482;-84
2021/09/22 03:19:08;;;;;;;4.50;3.80;;;5.90;99.90;;;;;;5053082;28;20078;-83
2021/09/22 03:21:37;;;;;;;5.78;4.28;;;5.90;99.90;;;;;;5059629;28;20017;-84
2021/09/22 03:24:03;;;;;;;5.45;3.13;;;5.90;99.90;;;;;;5041595;28;20390;-83
2021/09/22 03:26:29;;;;;;;5.30;3.95;;;5.90;99.90;;;;;;5053309;28;20020;-83
2021/09/22 03:28:55;;;;;;;7.13;3.70;;;5.90;99.90;;;;;;5053269;28;20390;-82
2021/09/22 03:31:21;;;;;;;4.75;4.13;;;6.00;99.90;;;;;;5053285;28;20021;-82
2021/09/22 03:33:47;;;;;;;5.85;4.38;;;5.90;99.90;;;;;;5053093;28;20036;-84
2021/09/22 03:36:13;;;;;;;5.90;4.38;;;5.90;99.90;;;;;;5053023;28;20037;-82
2021/09/22 03:38:39;;;;;;;6.55;4.85;;;5.90;99.90;;;;;;5053232;28;20040;-82
2021/09/22 03:41:05;;;;;;;5.82;4.95;;;6.00;99.90;;;;;;5051787;28;20025;-82
2021/09/22 03:43:30;;;;;;;4.40;4.00;;;6.10;99.90;;;;;;5053260;28;20021;-84
2021/09/22 03:45:56;;;;;;;7.28;5.32;;;6.10;99.90;;;;;;5054252;28;20455;-82
2021/09/22 03:48:22;;;;;;;9.95;7.13;;;6.10;99.90;;;;;;5053502;28;20051;-82
2021/09/22 03:50:48;;;;;;;6.97;5.95;;;6.10;99.90;;;;;;5052939;28;20123;-84
2021/09/22 03:53:19;;;;;;;6.97;5.22;;;6.00;99.90;;;;;;5052882;28;20036;-83
2021/09/22 03:55:46;;;;;;;8.05;6.15;;;6.00;99.90;;;;;;5039714;28;20075;-83
2021/09/22 03:58:12;;;;;;;9.77;6.37;;;6.10;99.90;;;;;;5053669;28;20028;-83
2021/09/22 04:00:39;;;;;;;6.13;5.10;;;6.10;99.90;;;;;;5052269;28;20246;-85
2021/09/22 04:03:05;;;;;;;5.88;5.20;;;6.00;99.90;;;;;;5052991;28;20021;-82
2021/09/22 04:05:31;;;;;;;9.02;7.53;;;6.00;99.90;;;;;;5053301;28;20033;-86
2021/09/22 04:07:57;;;;;;;10.02;6.13;;;5.90;99.90;;;;;;5035986;28;20352;-84
2021/09/22 04:10:23;;;;;;;9.20;6.90;;;5.90;99.90;;;;;;5053099;28;20347;-83
2021/09/22 04:12:49;;;;;;;8.70;6.22;;;6.00;99.90;;;;;;5052599;28;20024;-84
2021/09/22 04:15:15;;;;;;;11.48;8.00;;;6.00;99.90;;;;;;5050652;28;20033;-84
2021/09/22 04:17:41;;;;;;;9.95;6.68;;;6.00;99.90;;;;;;5035219;28;20466;-82
2021/09/22 04:20:07;;;;;;;10.10;7.85;;;6.10;99.90;;;;;;5054965;28;20029;-84
2021/09/22 04:22:34;;;;;;;11.57;7.35;;;6.00;99.90;;;;;;5057517;28;20021;-83
2021/09/22 04:25:00;;;;;;;17.15;10.65;;;6.00;99.90;;;;;;5033435;28;20037;-85
2021/09/22 04:27:26;;;;;;;14.50;9.15;;;6.00;99.90;;;;;;5051355;28;20074;-84
2021/09/22 04:29:51;;;;;;;12.07;9.32;;;6.00;99.90;;;;;;5057618;28;20489;-83
2021/09/22 04:32:17;;;;;;;11.15;8.43;;;6.10;99.90;;;;;;5056963;28;20100;-83
2021/09/22 04:34:43;;;;;;;13.40;9.55;;;6.20;99.90;;;;;;5056296;28;20074;-83
2021/09/22 04:37:09;;;;;;;11.60;9.07;;;6.20;99.90;;;;;;5056760;28;20456;-83
2021/09/22 04:39:35;;;;;;;15.02;9.02;;;6.20;99.90;;;;;;5050890;28;20025;-83
2021/09/22 04:42:02;;;;;;;11.82;8.48;;;6.20;99.90;;;;;;5058459;28;20029;-84
2021/09/22 04:44:28;;;;;;;17.10;10.02;;;6.30;99.90;;;;;;5056616;28;20021;-82
2021/09/22 04:46:54;;;;;;;11.80;9.27;;;6.20;99.90;;;;;;5064751;28;20095;-81
2021/09/22 04:49:20;;;;;;;12.52;9.70;;;6.20;99.90;;;;;;5063143;28;20025;-84
2021/09/22 04:51:46;;;;;;;10.05;8.10;;;6.20;99.90;;;;;;5056105;28;20099;-83
2021/09/22 04:54:12;;;;;;;13.07;8.73;;;6.20;99.90;;;;;;5044740;28;20053;-83
2021/09/22 04:56:38;;;;;;;13.52;10.35;;;6.30;99.90;;;;;;5055974;28;20029;-83
2021/09/22 04:59:04;;;;;;;13.60;9.25;;;6.30;99.90;;;;;;5055745;28;20095;-83
2021/09/22 05:01:29;;;;;;;16.98;9.18;;;6.30;99.90;;;;;;5056376;28;20028;-85
2021/09/22 05:03:55;;;;;;;15.27;11.85;;;6.30;99.90;;;;;;5058500;28;20382;-84
2021/09/22 05:06:21;;;;;;;11.93;8.98;;;6.30;99.90;;;;;;5046146;28;20074;-86
2021/09/22 05:08:47;;;;;;;11.65;9.48;;;6.30;99.90;;;;;;5060625;28;20127;-87
2021/09/22 05:11:13;;;;;;;11.77;9.05;;;6.30;99.90;;;;;;5043323;28;20064;-84
2021/09/22 05:13:38;;;;;;;11.55;8.20;;;6.30;99.90;;;;;;5056354;28;20167;-86
2021/09/22 05:16:05;;;;;;;11.15;7.75;;;6.30;99.90;;;;;;5056758;28;20166;-85
2021/09/22 05:18:31;;;;;;;10.40;8.00;;;6.30;99.90;;;;;;5060489;28;20470;-86
2021/09/22 05:20:56;;;;;;;13.77;9.98;;;6.40;99.90;;;;;;5058836;28;20025;-85
2021/09/22 05:23:22;;;;;;;13.43;8.73;;;6.40;99.90;;;;;;5056312;28;20151;-85
2021/09/22 05:25:48;;;;;;;10.32;7.25;;;6.40;99.90;;;;;;5064330;28;20045;-87
2021/09/22 05:28:14;;;;;;;11.00;8.77;;;6.40;99.90;;;;;;5070189;28;20017;-86
2021/09/22 05:30:40;;;;;;;11.35;7.25;;;6.50;99.90;;;;;;5059227;28;20032;-85
2021/09/22 05:33:10;;;;;;;8.95;6.88;;;6.60;99.90;;;;;;5055225;28;20070;-86
2021/09/22 05:35:37;;;;;;;9.70;6.93;;;6.60;99.90;;;;;;5054629;28;20070;-84
2021/09/22 05:38:03;;;;;;;7.30;6.40;;;6.70;99.90;;;;;;5038333;28;20021;-85
2021/09/22 05:40:29;;;;;;;14.82;9.02;;;6.80;99.90;;;;;;5055536;28;20044;-84
2021/09/22 05:42:55;;;;;;;9.88;6.97;;;6.70;99.90;;;;;;5056003;28;20080;-85
2021/09/22 05:45:21;;;;;;;7.13;6.28;;;6.70;99.90;;;;;;5056052;28;20450;-82
2021/09/22 05:47:47;;;;;;;8.15;6.90;;;6.60;99.90;;;;;;5057871;28;20021;-84
2021/09/22 05:50:12;;;;;;;9.00;6.95;;;6.60;99.90;;;;;;5059086;28;20483;-87
2021/09/22 05:52:38;;;;;;;8.00;6.82;;;6.60;99.90;;;;;;5049930;28;20100;-85
2021/09/22 05:55:04;;;;;;;9.18;6.20;;;6.70;99.90;;;;;;5057566;28;20052;-85
2021/09/22 05:57:30;;;;;;;6.97;5.88;;;6.70;99.90;;;;;;5056080;28;20475;-86
2021/09/22 05:59:56;;;;;;;7.38;6.28;;;6.70;99.90;;;;;;5055753;28;20078;-85
2021/09/22 06:02:22;;;;;;;12.18;7.32;;;6.70;99.90;;;;;;5057492;28;20021;-85
2021/09/22 06:04:48;;;;;;;8.98;6.32;;;6.70;99.90;;;;;;5040068;28;20437;-85
2021/09/22 06:07:14;;;;;;;9.93;7.50;;;6.70;99.90;;;;;;5057456;28;20382;-87
2021/09/22 06:09:39;;;;;;;7.03;5.68;;;6.70;99.90;;;;;;5057113;28;20017;-85
2021/09/22 06:12:05;;;;;;;9.07;6.35;;;6.70;99.90;;;;;;5056688;28;20021;-86
2021/09/22 06:14:31;;;;;;;10.40;7.30;;;6.60;99.90;;;;;;5055170;28;20021;-85
2021/09/22 06:16:57;;;;;;;9.38;7.57;;;6.70;99.90;;;;;;5049699;28;20393;-84
2021/09/22 06:19:23;;;;;;;8.52;6.53;;;6.70;99.90;;;;;;5054890;28;20025;-83
2021/09/22 06:21:49;;;;;;;10.23;6.18;;;6.60;99.90;;;;;;5053115;28;20470;-84
2021/09/22 06:24:18;;;;;;;7.90;6.30;;;6.60;99.90;;;;;;5055825;28;20017;-84
2021/09/22 06:26:45;;;;;;;8.65;6.43;;;6.60;99.90;;;;;;5066442;28;20056;-84
2021/09/22 06:29:11;;;;;;;9.27;6.68;;;6.60;99.90;;;;;;5058107;28;20486;-84
2021/09/22 06:31:38;;;;;;;10.02;7.13;;;6.60;99.90;;;;;;5056699;28;20036;-84
2021/09/22 06:34:04;;;;;;;13.70;6.57;;;6.70;99.90;;;;;;5055127;28;20020;-84
2021/09/22 06:36:30;;;;;;;8.27;4.97;;;6.70;99.90;;;;;;5053908;28;20041;-86
2021/09/22 06:38:56;;;;;;;6.45;5.60;;;6.80;99.90;;;;;;5055229;28;20526;-85
2021/09/22 06:41:23;;;;;;;12.57;6.32;;;6.80;99.90;;;;;;5055291;28;20029;-87
2021/09/22 06:43:49;;;;;;;6.78;5.22;;;6.80;99.90;;;;;;5062551;28;20018;-84
2021/09/22 06:46:15;;;;;;;6.90;6.10;;;6.90;99.90;;;;;;5059082;28;20036;-85
2021/09/22 06:48:41;;;;;;;8.52;6.43;;;6.90;99.90;;;;;;5053334;28;20024;-83
2021/09/22 06:51:07;;;;;;;8.50;5.47;;;6.90;99.90;;;;;;5049296;28;20056;-85
2021/09/22 06:53:37;;;;;;;6.97;5.85;;;7.00;99.90;;;;;;5054550;28;20031;-85
2021/09/22 06:56:03;;;;;;;9.00;5.97;;;7.00;99.90;;;;;;5054870;28;20478;-85
2021/09/22 06:58:29;;;;;;;9.52;6.03;;;7.00;99.90;;;;;;5054803;28;20097;-85
2021/09/22 07:00:55;;;;;;;7.20;6.35;;;7.00;99.90;;;;;;5054416;28;20044;-85
2021/09/22 07:03:21;;;;;;;13.15;6.47;;;7.00;99.90;;;;;;5054267;28;20036;-85
2021/09/22 07:05:47;;;;;;;7.80;5.05;;;7.00;99.90;;;;;;5056896;28;20374;-86
2021/09/22 07:08:13;;;;;;;6.28;5.38;;;7.10;99.90;;;;;;5054609;28;20036;-83
2021/09/22 07:10:39;;;;;;;7.90;4.82;;;7.10;99.90;;;;;;5054045;28;20033;-84
2021/09/22 07:13:05;;;;;;;7.30;5.57;;;7.20;99.90;;;;;;5053891;28;20017;-85
2021/09/22 07:15:32;;;;;;;7.22;5.22;;;7.30;99.90;;;;;;5052354;28;20039;-84
2021/09/22 07:17:57;;;;;;;6.80;5.22;;;7.40;99.90;;;;;;5054571;28;20021;-83
2021/09/22 07:20:23;;;;;;;5.97;4.85;;;7.40;99.90;;;;;;5036271;28;20027;-83
2021/09/22 07:22:49;;;;;;;6.03;4.85;;;7.40;99.90;;;;;;5053925;28;20082;-84
2021/09/22 07:25:15;;;;;;;8.65;5.28;;;7.30;99.90;;;;;;5053586;28;20020;-83
2021/09/22 07:27:41;;;;;;;7.80;5.00;;;7.30;99.90;;;;;;5054253;28;20036;-85
2021/09/22 07:30:09;;;;;;;5.93;4.35;;;7.30;99.90;;;;;;5052183;28;20083;-84
2021/09/22 07:32:36;;;;;;;7.25;5.45;;;7.30;99.90;;;;;;5035785;28;20025;-83
2021/09/22 07:35:02;;;;;;;10.82;5.00;;;7.40;99.90;;;;;;5035196;28;20033;-84
2021/09/22 07:37:28;;;;;;;7.10;4.45;;;7.40;99.90;;;;;;5035545;28;20044;-85
2021/09/22 07:39:55;;;;;;;6.30;3.70;;;7.40;99.90;;;;;;5067216;28;20027;-84
2021/09/22 07:42:21;;;;;;;5.13;4.00;;;7.50;99.90;;;;;;5051028;28;20022;-87
2021/09/22 07:44:49;;;;;;;4.95;3.80;;;7.50;99.90;;;;;;5051893;28;20289;-87
2021/09/22 07:47:15;;;;;;;8.68;4.20;;;7.50;99.90;;;;;;5053743;28;20013;-86
2021/09/22 07:49:43;;;;;;;6.85;4.28;;;7.60;99.90;;;;;;5042486;28;20029;-85
2021/09/22 07:52:10;;;;;;;5.78;3.75;;;7.60;99.90;;;;;;5041455;28;20017;-85
2021/09/22 07:54:37;;;;;;;5.13;3.90;;;7.60;99.90;;;;;;5026382;28;20029;-84
2021/09/22 07:57:03;;;;;;;8.07;3.90;;;7.50;99.90;;;;;;5054976;28;20449;-84
2021/09/22 07:59:29;;;;;;;3.78;3.38;;;7.50;99.90;;;;;;5052993;28;20020;-83
2021/09/22 08:01:56;;;;;;;5.95;3.40;;;7.40;99.90;;;;;;5053144;28;20025;-82
2021/09/22 08:04:22;;;;;;;3.13;2.80;;;7.40;99.90;;;;;;5053192;28;20035;-86
2021/09/22 08:06:48;;;;;;;5.32;3.40;;;7.50;99.90;;;;;;5052510;28;20541;-82
2021/09/22 08:09:14;;;;;;;5.13;3.60;;;7.50;99.90;;;;;;5053449;28;20048;-84
2021/09/22 08:11:40;;;;;;;5.15;3.80;;;7.60;99.90;;;;;;5055870;28;20021;-83
2021/09/22 08:14:06;;;;;;;4.85;3.50;;;7.60;99.90;;;;;;5056706;28;20021;-84
2021/09/22 08:16:32;;;;;;;4.18;3.55;;;7.70;99.90;;;;;;5057229;28;20029;-82
2021/09/22 08:18:58;;;;;;;5.22;3.50;;;7.70;99.90;;;;;;5053291;28;20104;-84
2021/09/22 08:21:24;;;;;;;6.78;4.03;;;7.80;99.90;;;;;;5054470;28;20556;-81
2021/09/22 08:23:50;;;;;;;4.38;3.92;;;7.80;99.90;;;;;;5052667;28;20017;-83
2021/09/22 08:26:16;;;;;;;7.80;3.83;;;7.90;99.90;;;;;;5051460;28;20032;-83
2021/09/22 08:28:42;;;;;;;5.85;3.83;;;7.80;99.90;;;;;;5053084;28;20021;-83
2021/09/22 08:31:07;;;;;;;8.48;4.25;;;7.80;99.90;;;;;;5053075;28;20025;-83
2021/09/22 08:33:33;;;;;;;5.68;3.30;;;7.80;99.90;;;;;;5052708;28;20014;-83
2021/09/22 08:35:59;;;;;;;6.43;4.78;;;7.80;99.90;;;;;;5052996;28;20041;-83
2021/09/22 08:38:25;;;;;;;5.25;4.00;;;7.90;99.90;;;;;;5053713;28;20018;-83
2021/09/22 08:40:52;;;;;;;5.55;3.50;;;8.00;99.90;;;;;;5055686;28;20509;-83
2021/09/22 08:43:22;;;;;;;4.75;3.25;;;8.20;99.90;;;;;;5058944;28;20093;-81
2021/09/22 08:45:48;;;;;;;4.78;3.47;;;8.20;99.60;;;;;;5054252;28;20021;-84
2021/09/22 08:48:14;;;;;;;8.90;3.75;;;8.30;99.50;;;;;;5053229;28;20021;-84
2021/09/22 08:50:40;;;;;;;6.07;4.43;;;8.30;99.40;;;;;;5053950;28;20040;-85
2021/09/22 08:53:06;;;;;;;3.85;3.22;;;8.40;99.30;;;;;;5036069;28;20112;-83
2021/09/22 08:55:32;;;;;;;5.85;4.38;;;8.30;99.20;;;;;;5052204;28;20505;-85
2021/09/22 08:58:00;;;;;;;4.68;3.35;;;8.20;99.10;;;;;;5052832;28;20067;-82
2021/09/22 09:00:26;;;;;;;3.83;3.20;;;8.10;99.10;;;;;;5052395;28;20020;-82
2021/09/22 09:02:52;;;;;;;4.68;3.25;;;8.20;99.20;;;;;;5051953;28;20029;-83
2021/09/22 09:05:21;;;;;;;5.35;3.90;;;8.30;98.90;;;;;;5052150;28;20050;-84
2021/09/22 09:07:55;;;;;;;5.75;4.10;;;8.30;98.80;;;;;;5054106;28;20080;-84
2021/09/22 09:10:26;;;;;;;5.18;3.45;;;8.20;98.80;;;;;;5056517;28;20032;-83
2021/09/22 09:13:07;;;;;;;3.60;3.28;;;8.20;98.80;;;;;;5037831;28;20024;-83
2021/09/22 09:15:35;;;;;;;6.53;3.67;;;8.20;98.40;;;;;;5054515;28;20033;-83
2021/09/22 09:18:09;;;;;;;5.78;3.47;;;8.20;98.30;;;;;;5054759;28;20021;-83
2021/09/22 09:20:35;;;;;;;4.47;3.50;;;8.20;98.50;;;;;;5056086;28;20040;-82
2021/09/22 09:23:06;;;;;;;4.60;3.25;;;8.30;98.20;;;;;;5069363;28;20094;-83
2021/09/22 09:25:37;;;;;;;4.93;3.47;;;8.30;98.10;;;;;;5049528;28;20098;-84
2021/09/22 09:28:22;;;;;;;5.75;4.22;;;8.30;98.10;;;;;;5057037;28;20021;-82
2021/09/22 09:30:51;;;;;;;4.43;3.53;;;8.40;97.90;;;;;;5055511;28;20382;-83
2021/09/22 09:33:36;;;;;;;5.13;3.65;;;8.30;97.80;;;;;;5055100;28;20025;-83
2021/09/22 09:36:24;;;;;;;3.78;2.97;;;8.20;97.70;;;;;;5055339;28;20072;-83
2021/09/22 09:38:51;;;;;;;8.23;4.32;;;8.20;97.70;;;;;;5069414;28;20111;-84
2021/09/22 09:41:28;;;;;;;3.83;3.22;;;8.10;97.70;;;;;;5055264;28;20029;-84
2021/09/22 09:43:54;;;;;;;4.13;3.22;;;8.20;97.80;;;;;;5055493;28;20083;-84
2021/09/22 09:46:22;;;;;;;6.97;5.20;;;8.10;97.80;;;;;;5044652;28;20017;-83
2021/09/22 09:49:08;;;;;;;5.55;3.88;;;8.20;98.00;;;;;;5051269;28;20429;-83
2021/09/22 09:51:43;;;;;;;10.23;5.13;;;8.20;97.90;;;;;;5057423;28;20509;-83
2021/09/22 09:54:17;;;;;;;6.50;3.50;;;8.20;97.90;;;;;;5053706;28;20117;-82
2021/09/22 09:56:43;;;;;;;6.88;4.05;;;8.30;97.90;;;;;;5055237;28;20040;-86
2021/09/22 09:59:10;;;;;;;5.00;3.35;;;8.30;97.90;;;;;;5055213;28;20079;-86
2021/09/22 10:01:45;;;;;;;5.22;3.65;;;8.30;97.90;;;;;;5053442;28;20478;-84
2021/09/22 10:04:13;;;;;;;5.00;3.80;;;8.40;97.70;;;;;;5055007;28;20028;-83
2021/09/22 10:06:39;;;;;;;4.03;3.17;;;8.40;97.70;;;;;;5055374;28;20028;-83
2021/09/22 10:09:06;;;;;;;5.18;4.05;;;8.40;97.60;;;;;;5036982;28;20032;-82
2021/09/22 10:11:34;;;;;;;4.47;3.43;;;8.50;97.50;;;;;;5055827;28;20051;-83
2021/09/22 10:14:01;;;;;;;5.80;5.00;;;8.50;97.30;;;;;;5055670;28;20025;-83
2021/09/22 10:16:28;;;;;;;5.30;4.28;;;8.60;97.10;;;;;;5037784;28;20032;-84
2021/09/22 10:18:57;;;;;;;4.53;4.03;;;8.60;97.20;;;;;;5053058;28;20486;-83
2021/09/22 10:21:23;;;;;;;6.88;4.95;;;8.60;96.60;;;;;;5054577;28;20028;-83
2021/09/22 10:23:51;;;;;;;7.03;4.97;;;8.50;96.60;;;;;;5054593;28;20029;-82
2021/09/22 10:26:17;;;;;;;;;;;8.50;96.50;;;;;;5054538;28;20067;-83
2021/09/22 10:28:45;;;;;;;11.73;8.57;;;8.50;96.70;;;;;;5037326;28;19905;-83
2021/09/22 10:31:24;;;;;;;7.20;3.92;;;8.40;96.70;;;;;;5036753;28;20040;-83
2021/09/22 10:33:49;;;;;;;6.32;3.53;;;8.40;96.90;;;;;;5036640;28;20067;-83
2021/09/22 10:36:16;;;;;;;7.15;5.65;;;8.50;96.90;;;;;;5053195;28;20045;-81
2021/09/22 10:38:49;;;;;;;5.00;4.50;;;8.40;96.70;;;;;;5036662;28;20017;-83
2021/09/22 10:41:27;;;;;;;5.57;5.00;;;8.40;96.80;;;;;;5058817;28;20029;-81
2021/09/22 10:43:54;;;;;;;4.95;4.25;;;8.50;97.10;;;;;;5038615;28;20029;-81
2021/09/22 10:46:20;;;;;;;5.25;4.53;;;8.60;96.80;;;;;;5046008;28;20082;-82
2021/09/22 10:49:03;;;;;;;6.03;4.00;;;8.60;96.60;;;;;;5053207;28;20017;-82
2021/09/22 10:51:45;;;;;;;5.03;4.13;;;8.60;96.70;;;;;;5052646;28;20569;-83
2021/09/22 10:54:22;;;;;;;5.90;5.05;;;8.60;96.70;;;;;;5054193;28;20017;-83
2021/09/22 10:56:56;;;;;;;8.13;4.22;;;8.60;96.80;;;;;;5053672;28;20444;-83
2021/09/22 10:59:35;;;;;;;5.57;4.25;;;8.60;96.70;;;;;;5047259;28;20451;-84
2021/09/22 11:02:02;;;;;;;7.57;4.57;;;8.70;96.70;;;;;;5060710;28;20025;-82
2021/09/22 11:04:55;;;;;;;5.33;4.43;;;8.70;96.60;;;;;;5060066;28;20013;-83
2021/09/22 11:07:22;;;;;;;5.13;4.47;;;8.80;96.40;;;;;;5054993;28;20274;-84
2021/09/22 11:09:48;;;;;;;5.50;5.00;;;8.80;96.10;;;;;;5052073;28;20355;-83
2021/09/22 11:12:16;;;;;;;5.57;4.55;;;8.70;96.10;;;;;;5053715;28;20044;-84
2021/09/22 11:14:57;;;;;;;6.28;4.72;;;8.70;96.00;;;;;;5053408;28;20013;-83
2021/09/22 11:17:29;;;;;;;5.07;4.55;;;8.70;96.00;;;;;;5053570;28;20041;-84
2021/09/22 11:19:57;;;;;;;7.20;5.32;;;8.70;96.10;;;;;;5054246;28;20021;-83
2021/09/22 11:22:33;;;;;;;7.22;4.68;;;8.70;96.40;;;;;;5053656;28;20036;-83
2021/09/22 11:25:04;;;;;;;6.65;5.00;;;8.70;96.40;;;;;;5053812;28;20020;-81
2021/09/22 11:27:31;;;;;;;5.50;4.22;;;8.70;96.50;;;;;;5053362;28;20024;-83
2021/09/22 11:30:03;;;;;;;8.32;6.97;;;8.70;96.40;;;;;;5035252;28;20074;-85
2021/09/22 11:32:39;;;;;;;6.60;5.25;;;8.70;96.20;;;;;;5053467;28;20021;-82
2021/09/22 11:35:17;;;;;;;9.75;6.13;;;8.70;96.20;;;;;;5039139;28;20080;-82
2021/09/22 11:37:56;;;;;;;9.30;5.80;;;8.60;96.30;;;;;;5052678;28;20431;-82
2021/09/22 11:40:32;;;;;;;6.40;5.68;;;8.60;96.50;;;;;;5052105;28;20482;-82
2021/09/22 11:43:10;;;;;;;12.13;7.65;;;8.60;96.70;;;;;;5035005;28;20092;-82
2021/09/22 11:45:51;;;;;;;7.35;6.63;;;8.60;96.40;;;;;;5052578;28;20060;-82
2021/09/22 11:48:32;;;;;;;8.77;7.82;;;8.60;96.40;;;;;;5052738;28;20163;-83
2021/09/22 11:51:00;;;;;;;6.93;6.25;;;8.60;96.40;;;;;;5021773;28;20053;-82
2021/09/22 11:53:30;;;;;;;8.77;6.63;;;8.50;96.50;;;;;;5052258;28;20028;-81
2021/09/22 11:55:57;;;;;;;9.35;7.00;;;8.60;96.70;;;;;;5052180;28;20044;-82
2021/09/22 11:58:25;;;;;;;10.65;6.25;;;8.60;96.70;;;;;;5052689;28;20013;-82
2021/09/22 12:00:57;;;;;;;13.93;7.95;;;8.60;96.60;;;;;;5053057;28;20120;-83
2021/09/22 12:03:32;;;;;;;9.98;8.15;;;8.70;96.60;;;;;;5040314;28;20052;-81
2021/09/22 12:06:03;;;;;;;16.45;8.50;;;8.70;97.00;;;;;;5053402;28;20169;-83
2021/09/22 12:08:33;;;;;;;14.07;10.10;;;8.80;96.70;;;;;;5052932;28;20025;-83
2021/09/22 12:11:00;;;;;;;11.00;9.27;;;8.90;96.60;;;;;;5066041;28;20013;-82
2021/09/22 12:13:26;;;;;;;15.45;8.95;;;8.90;96.50;;;;;;5051129;28;20450;-81
2021/09/22 12:15:57;;;;;;;11.40;9.23;;;8.90;96.50;;;;;;5051698;28;20043;-83
2021/09/22 12:18:24;;;;;;;11.60;10.40;;;8.90;96.20;;;;;;5052180;28;20021;-84
2021/09/22 12:20:50;;;;;;;19.40;12.23;;;8.80;96.20;;;;;;5035216;28;20437;-81
2021/09/22 12:23:31;;;;;;;13.05;9.75;;;8.70;96.30;;;;;;5052316;28;20037;-82
2021/09/22 12:26:14;;;;;;;11.18;9.25;;;8.70;96.40;;;;;;5052105;28;20036;-83
2021/09/22 12:28:42;;;;;;;12.05;9.77;;;8.70;96.40;;;;;;5052099;28;20017;-83
2021/09/22 12:31:26;;;;;;;11.82;10.23;;;8.80;96.30;;;;;;5050259;28;20021;-82
2021/09/22 12:33:52;;;;;;;10.50;8.95;;;8.70;96.30;;;;;;5052440;28;20021;-84
2021/09/22 12:36:21;;;;;;;12.73;9.40;;;8.70;96.50;;;;;;5052188;28;20037;-82
2021/09/22 12:38:52;;;;;;;12.60;10.57;;;8.70;96.70;;;;;;5053601;28;20061;-82
2021/09/22 12:41:20;;;;;;;13.05;10.50;;;8.70;96.90;;;;;;5057635;28;20074;-83
2021/09/22 12:43:48;;;;;;;9.98;8.90;;;8.70;97.00;;;;;;5057270;28;20472;-82
2021/09/22 12:46:14;;;;;;;;;;;8.70;96.90;;;;;;5056199;28;20488;-82
2021/09/22 12:48:41;;;;;;;13.13;9.30;;;8.70;96.90;;;;;;5054527;28;19911;-84
2021/09/22 12:51:20;;;;;;;13.45;12.05;;;8.60;97.00;;;;;;5054524;28;20627;-83
2021/09/22 12:53:48;;;;;;;14.73;13.25;;;8.70;97.00;;;;;;5056211;28;20025;-83
2021/09/22 12:56:16;;;;;;;14.30;12.07;;;8.70;97.00;;;;;;5055864;28;20163;-83
2021/09/22 12:58:43;;;;;;;15.35;12.20;;;8.70;97.00;;;;;;5055422;28;20017;-84